createdAt,value
2023-03-07T00:01:29.068Z,17.75
2023-03-07T00:03:57.575Z,15.50
2023-03-07T00:06:25.498Z,21.50
2023-03-07T00:08:55.332Z,11.50
2023-03-07T00:11:23.472Z,17.25
2023-03-07T00:13:51.691Z,17.50
2023-03-07T00:16:21.636Z,16.75
2023-03-07T00:18:49.829Z,15.00
2023-03-07T00:21:20.290Z,16.25
2023-03-07T00:23:48.720Z,14.00
2023-03-07T00:26:19.060Z,15.75
2023-03-07T00:28:48.129Z,12.75
2023-03-07T00:31:16.518Z,6.50
2023-03-07T00:33:45.705Z,12.00
2023-03-07T00:36:16.850Z,16.50
2023-03-07T00:38:49.957Z,18.25
2023-03-07T00:41:23.172Z,17.25
2023-03-07T00:43:51.697Z,12.25
2023-03-07T00:46:21.355Z,16.00
2023-03-07T00:48:49.739Z,13.50
2023-03-07T00:51:19.242Z,12.75
2023-03-07T00:53:46.971Z,16.25
2023-03-07T00:56:15.937Z,13.50
2023-03-07T00:58:43.804Z,11.25
2023-03-07T01:01:13.701Z,14.00
2023-03-07T01:03:42.386Z,19.50
2023-03-07T01:06:17.141Z,17.50
2023-03-07T01:08:44.947Z,16.25
2023-03-07T01:11:14.551Z,23.00
2023-03-07T01:13:42.470Z,17.00
2023-03-07T01:16:17.388Z,13.75
2023-03-07T01:18:48.096Z,18.25
2023-03-07T01:21:25.152Z,19.50
2023-03-07T01:23:53.051Z,14.00
2023-03-07T01:26:26.089Z,15.75
2023-03-07T01:28:56.819Z,17.00
2023-03-07T01:31:25.013Z,18.75
2023-03-07T01:33:54.437Z,15.25
2023-03-07T01:36:30.719Z,16.00
2023-03-07T01:39:02.739Z,14.00
2023-03-07T01:41:32.481Z,17.50
2023-03-07T01:44:02.557Z,17.00
2023-03-07T01:46:43.881Z,22.50
2023-03-07T01:49:29.646Z,16.50
2023-03-07T01:52:20.678Z,16.75
2023-03-07T01:54:52.879Z,19.50
2023-03-07T01:57:23.745Z,21.75
2023-03-07T01:59:56.521Z,21.75
2023-03-07T02:02:25.073Z,12.25
2023-03-07T02:05:13.293Z,18.00
2023-03-07T02:07:49.111Z,23.25
2023-03-07T02:10:20.400Z,21.00
2023-03-07T02:12:49.168Z,18.75
2023-03-07T02:15:22.470Z,23.75
2023-03-07T02:17:51.320Z,22.25
2023-03-07T02:20:33.680Z,17.50
2023-03-07T02:23:04.574Z,22.25
2023-03-07T02:25:42.226Z,20.25
2023-03-07T02:28:13.873Z,24.00
2023-03-07T02:30:57.171Z,30.75
2023-03-07T02:33:26.154Z,29.00
2023-03-07T02:36:00.289Z,29.00
2023-03-07T02:38:29.097Z,28.25
2023-03-07T02:40:57.295Z,26.75
2023-03-07T02:43:25.358Z,21.25
2023-03-07T02:45:52.764Z,27.25
2023-03-07T02:48:20.102Z,25.00
2023-03-07T02:50:51.286Z,23.00
2023-03-07T02:53:18.757Z,30.00
2023-03-07T02:55:46.489Z,25.25
2023-03-07T02:58:14.871Z,22.75
2023-03-07T03:00:43.518Z,23.00
2023-03-07T03:03:12.098Z,38.00
2023-03-07T03:05:39.723Z,35.75
2023-03-07T03:08:07.674Z,38.25
2023-03-07T03:10:36.297Z,36.00
2023-03-07T03:13:05.870Z,32.50
2023-03-07T03:15:33.593Z,33.50
2023-03-07T03:18:02.593Z,22.25
2023-03-07T03:20:30.597Z,21.75
2023-03-07T03:22:58.222Z,22.25
2023-03-07T03:25:27.301Z,13.50
2023-03-07T03:27:54.671Z,20.00
2023-03-07T03:30:22.065Z,21.00
2023-03-07T03:32:56.557Z,17.75
2023-03-07T03:35:24.037Z,21.25
2023-03-07T03:37:51.535Z,23.75
2023-03-07T03:40:22.006Z,22.50
2023-03-07T03:42:50.975Z,24.50
2023-03-07T03:45:19.568Z,20.75
2023-03-07T03:47:48.647Z,20.50
2023-03-07T03:50:18.785Z,21.00
2023-03-07T03:52:47.612Z,23.00
2023-03-07T03:55:15.002Z,22.00
2023-03-07T03:57:43.451Z,23.00
2023-03-07T04:00:14.898Z,22.50
2023-03-07T04:02:42.503Z,23.00
2023-03-07T04:05:10.199Z,24.75
2023-03-07T04:07:41.315Z,16.50
2023-03-07T04:10:09.433Z,26.00
2023-03-07T04:12:38.433Z,32.50
2023-03-07T04:15:07.901Z,37.00
2023-03-07T04:17:40.854Z,36.75
2023-03-07T04:20:14.780Z,31.75
2023-03-07T04:22:42.183Z,33.75
2023-03-07T04:25:12.232Z,21.75
2023-03-07T04:27:40.241Z,17.00
2023-03-07T04:30:09.590Z,27.75
2023-03-07T04:32:39.462Z,27.50
2023-03-07T04:35:07.137Z,28.50
2023-03-07T04:37:34.833Z,25.75
2023-03-07T04:40:02.386Z,31.75
2023-03-07T04:42:33.073Z,26.75
2023-03-07T04:45:00.656Z,22.25
2023-03-07T04:47:28.220Z,27.75
2023-03-07T04:49:55.812Z,26.75
2023-03-07T04:52:23.210Z,24.75
2023-03-07T04:54:51.408Z,23.25
2023-03-07T04:57:19.253Z,22.00
2023-03-07T04:59:46.602Z,23.00
2023-03-07T05:02:14.907Z,23.50
2023-03-07T05:04:42.309Z,21.25
2023-03-07T05:07:10.484Z,17.00
2023-03-07T05:09:38.247Z,18.50
2023-03-07T05:12:06.077Z,22.50
2023-03-07T05:14:33.740Z,22.75
2023-03-07T05:17:01.114Z,25.75
2023-03-07T05:19:33.620Z,22.75
2023-03-07T05:22:21.112Z,23.00
2023-03-07T05:24:48.566Z,21.25
2023-03-07T05:27:16.605Z,20.75
2023-03-07T05:29:44.031Z,18.00
2023-03-07T05:32:11.472Z,19.50
2023-03-07T05:34:39.140Z,17.25
2023-03-07T05:37:08.819Z,13.25
2023-03-07T05:39:36.362Z,19.75
2023-03-07T05:42:04.047Z,15.50
2023-03-07T05:44:33.756Z,20.00
2023-03-07T05:47:01.667Z,16.25
2023-03-07T05:49:35.315Z,18.00
2023-03-07T05:52:02.752Z,17.00
2023-03-07T05:54:30.564Z,12.75
2023-03-07T05:56:57.997Z,16.00
2023-03-07T05:59:25.513Z,15.50
2023-03-07T06:01:53.366Z,18.25
2023-03-07T06:04:20.693Z,15.25
2023-03-07T06:06:48.097Z,12.25
2023-03-07T06:09:15.728Z,14.25
2023-03-07T06:11:43.098Z,18.00
2023-03-07T06:14:13.539Z,25.50
2023-03-07T06:16:41.175Z,24.25
2023-03-07T06:19:08.886Z,18.25
2023-03-07T06:21:36.517Z,22.75
2023-03-07T06:24:05.328Z,24.75
2023-03-07T06:26:32.838Z,21.75
2023-03-07T06:29:01.941Z,16.75
2023-03-07T06:31:29.433Z,16.00
2023-03-07T06:33:57.725Z,16.00
2023-03-07T06:36:26.052Z,13.00
2023-03-07T06:38:53.441Z,16.75
2023-03-07T06:41:21.040Z,15.50
2023-03-07T06:43:54.018Z,16.00
2023-03-07T06:46:21.779Z,25.75
2023-03-07T06:48:51.063Z,14.00
2023-03-07T06:51:18.593Z,23.00
2023-03-07T06:53:45.984Z,15.00
2023-03-07T06:56:13.742Z,20.50
2023-03-07T06:58:41.266Z,17.00
2023-03-07T07:01:16.179Z,27.00
2023-03-07T07:03:44.326Z,17.75
2023-03-07T07:06:11.917Z,22.25
2023-03-07T07:08:59.249Z,17.50
2023-03-07T07:11:28.440Z,19.75
2023-03-07T07:13:57.661Z,15.50
2023-03-07T07:16:25.334Z,20.25
2023-03-07T07:18:52.753Z,17.00
2023-03-07T07:21:20.899Z,18.50
2023-03-07T07:23:48.282Z,15.50
2023-03-07T07:26:20.307Z,23.00
2023-03-07T07:28:48.039Z,12.00
2023-03-07T07:31:16.097Z,16.00
2023-03-07T07:33:46.510Z,26.75
2023-03-07T07:36:14.175Z,22.00
2023-03-07T07:38:45.046Z,22.75
2023-03-07T07:41:12.536Z,23.75
2023-03-07T07:43:41.834Z,19.00
2023-03-07T07:46:11.634Z,23.25
2023-03-07T07:48:40.190Z,21.25
2023-03-07T07:51:07.925Z,17.00
2023-03-07T07:53:35.879Z,21.00
2023-03-07T07:56:03.600Z,19.75
2023-03-07T07:58:36.811Z,22.00
2023-03-07T08:01:19.801Z,28.00
2023-03-07T08:03:47.981Z,22.75
2023-03-07T08:06:20.795Z,22.00
2023-03-07T08:08:49.605Z,19.50
2023-03-07T08:11:18.421Z,18.00
2023-03-07T08:13:46.653Z,20.00
2023-03-07T08:16:16.961Z,23.25
2023-03-07T08:18:50.163Z,28.75
2023-03-07T08:21:17.755Z,26.50
2023-03-07T08:23:45.495Z,25.50
2023-03-07T08:26:17.657Z,24.75
2023-03-07T08:28:45.377Z,25.75
2023-03-07T08:31:18.181Z,30.00
2023-03-07T08:33:56.595Z,17.50
2023-03-07T08:36:24.156Z,23.25
2023-03-07T08:38:52.286Z,24.00
2023-03-07T08:41:21.563Z,23.75
2023-03-07T08:43:49.184Z,26.00
2023-03-07T08:46:16.728Z,23.00
2023-03-07T08:48:44.655Z,24.25
2023-03-07T08:51:15.839Z,20.00
2023-03-07T08:53:46.253Z,25.25
2023-03-07T08:56:16.256Z,20.50
2023-03-07T08:58:43.797Z,25.50
2023-03-07T09:01:13.180Z,24.25
2023-03-07T09:03:40.607Z,24.50
2023-03-07T09:06:08.416Z,21.00
2023-03-07T09:08:35.876Z,24.25
2023-03-07T09:11:05.619Z,21.00
2023-03-07T09:13:36.033Z,17.75
2023-03-07T09:16:08.418Z,29.00
2023-03-07T09:18:36.569Z,24.75
2023-03-07T09:21:05.751Z,20.50
2023-03-07T09:23:33.394Z,23.00
2023-03-07T09:26:01.881Z,19.25
2023-03-07T09:28:29.830Z,19.00
2023-03-07T09:30:58.122Z,13.25
2023-03-07T09:33:27.897Z,20.25
2023-03-07T09:35:55.608Z,18.50
2023-03-07T09:38:23.074Z,22.25
2023-03-07T09:40:52.886Z,24.50
2023-03-07T09:43:26.922Z,19.75
2023-03-07T09:45:54.448Z,19.00
2023-03-07T09:48:44.414Z,17.75
2023-03-07T09:51:32.816Z,19.75
2023-03-07T09:54:10.905Z,14.25
2023-03-07T09:56:59.190Z,20.75
2023-03-07T09:59:39.573Z,24.00
2023-03-07T10:02:18.189Z,18.00
2023-03-07T10:04:55.000Z,18.50
2023-03-07T10:07:25.650Z,21.25
2023-03-07T10:09:57.858Z,22.25
2023-03-07T10:12:44.095Z,22.50
2023-03-07T10:15:25.802Z,23.25
2023-03-07T10:18:30.351Z,14.75
2023-03-07T10:21:02.445Z,21.75
2023-03-07T10:23:41.260Z,23.00
2023-03-07T10:26:32.144Z,26.00
2023-03-07T10:29:02.766Z,24.25
2023-03-07T10:31:36.371Z,21.00
2023-03-07T10:34:27.385Z,28.00
2023-03-07T10:37:19.630Z,27.00
2023-03-07T10:39:57.408Z,15.25
2023-03-07T10:42:32.256Z,25.75
2023-03-07T10:45:01.781Z,23.25
2023-03-07T10:47:29.827Z,23.00
2023-03-07T10:50:17.570Z,26.25
2023-03-07T10:52:53.708Z,21.00
2023-03-07T10:55:40.614Z,17.75
2023-03-07T10:58:26.024Z,20.50
2023-03-07T11:01:08.668Z,21.75
2023-03-07T11:03:55.863Z,23.50
2023-03-07T11:06:33.792Z,21.75
2023-03-07T11:09:19.467Z,17.75
2023-03-07T11:12:10.558Z,21.50
2023-03-07T11:14:48.290Z,22.50
2023-03-07T11:17:42.491Z,15.50
2023-03-07T11:20:25.053Z,15.50
2023-03-07T11:23:17.039Z,18.00
2023-03-07T11:25:45.931Z,20.75
2023-03-07T11:28:33.726Z,15.75
2023-03-07T11:31:07.663Z,15.25
2023-03-07T11:33:59.190Z,17.00
2023-03-07T11:36:32.555Z,19.00
2023-03-07T11:39:09.193Z,21.25
2023-03-07T11:41:40.490Z,16.25
2023-03-07T11:44:31.332Z,17.75
2023-03-07T11:47:20.506Z,17.33
2023-03-07T11:50:12.383Z,16.00
2023-03-07T11:52:55.311Z,16.25
2023-03-07T11:55:27.705Z,6.75
2023-03-07T11:58:32.243Z,13.75
2023-03-07T12:00:59.676Z,18.75
2023-03-07T12:03:52.565Z,12.25
2023-03-07T12:06:35.094Z,16.00
2023-03-07T12:09:24.150Z,16.75
2023-03-07T12:12:29.310Z,14.67
2023-03-07T12:15:24.785Z,19.00
2023-03-07T12:18:35.370Z,16.33
2023-03-07T12:21:08.718Z,20.00
2023-03-07T12:23:47.244Z,17.33
2023-03-07T12:26:26.897Z,16.67
2023-03-07T12:29:04.520Z,15.33
2023-03-07T12:31:38.081Z,14.67
2023-03-07T12:34:41.051Z,17.33
2023-03-07T12:37:28.207Z,17.00
2023-03-07T12:40:18.308Z,16.25
2023-03-07T12:43:16.841Z,15.00
2023-03-07T12:45:51.776Z,14.75
2023-03-07T12:48:35.884Z,16.50
2023-03-07T12:51:17.895Z,19.25
2023-03-07T12:53:55.557Z,16.33
2023-03-07T12:56:32.951Z,15.33
2023-03-07T12:59:12.967Z,14.67
2023-03-07T13:01:49.061Z,14.33
2023-03-07T13:04:36.799Z,15.67
2023-03-07T13:07:29.687Z,15.00
2023-03-07T13:10:00.276Z,16.00
2023-03-07T13:12:29.539Z,15.67
2023-03-07T13:15:00.025Z,16.33
2023-03-07T13:17:30.010Z,15.67
2023-03-07T13:20:07.438Z,16.00
2023-03-07T13:22:35.790Z,17.00
2023-03-07T13:25:26.016Z,15.33
2023-03-07T13:27:55.806Z,14.67
2023-03-07T13:30:23.532Z,13.00
2023-03-07T13:32:52.094Z,17.00
2023-03-07T13:35:28.880Z,13.67
2023-03-07T13:38:15.516Z,16.67
2023-03-07T13:40:43.693Z,12.00
2023-03-07T13:43:24.207Z,18.00
2023-03-07T13:46:04.729Z,14.00
2023-03-07T13:48:32.395Z,17.00
2023-03-07T13:51:02.596Z,14.33
2023-03-07T13:53:53.306Z,15.00
2023-03-07T13:56:29.007Z,15.33
2023-03-07T13:59:24.650Z,17.50
2023-03-07T14:02:04.379Z,17.00
2023-03-07T14:04:44.923Z,15.33
2023-03-07T14:07:28.983Z,18.33
2023-03-07T14:10:21.512Z,16.67
2023-03-07T14:13:08.317Z,26.50
2023-03-07T14:16:13.399Z,17.25
2023-03-07T14:18:52.738Z,12.75
2023-03-07T14:21:38.604Z,18.75
2023-03-07T14:24:27.630Z,12.75
2023-03-07T14:26:58.182Z,18.00
2023-03-07T14:29:29.111Z,14.00
2023-03-07T14:31:59.534Z,18.75
2023-03-07T14:34:36.280Z,17.25
2023-03-07T14:37:27.394Z,17.00
2023-03-07T14:40:18.611Z,15.75
2023-03-07T14:43:30.984Z,21.25
2023-03-07T14:46:19.424Z,19.75
2023-03-07T14:49:09.180Z,16.75
2023-03-07T14:51:41.710Z,20.25
2023-03-07T14:54:17.174Z,25.50
2023-03-07T14:56:44.881Z,20.75
2023-03-07T14:59:27.807Z,18.50
2023-03-07T15:01:56.575Z,17.50
2023-03-07T15:04:29.875Z,19.00
2023-03-07T15:07:04.673Z,20.25
2023-03-07T15:09:34.526Z,21.50
2023-03-07T15:12:28.595Z,15.00
2023-03-07T15:15:01.427Z,18.50
2023-03-07T15:17:42.034Z,22.00
2023-03-07T15:20:19.602Z,21.50
2023-03-07T15:22:47.558Z,22.75
2023-03-07T15:25:25.866Z,21.75
2023-03-07T15:28:05.684Z,20.75
2023-03-07T15:30:37.626Z,22.00
2023-03-07T15:33:21.083Z,21.25
2023-03-07T15:36:25.729Z,16.25
2023-03-07T15:39:13.258Z,21.25
2023-03-07T15:41:40.771Z,19.75
2023-03-07T15:44:11.824Z,22.50
2023-03-07T15:46:43.237Z,20.50
2023-03-07T15:49:35.382Z,18.75
2023-03-07T15:52:03.624Z,20.00
2023-03-07T15:54:41.925Z,21.50
2023-03-07T15:57:25.588Z,23.00
2023-03-07T15:59:58.259Z,24.50
2023-03-07T16:02:32.530Z,20.00
2023-03-07T16:05:02.051Z,26.25
2023-03-07T16:07:29.680Z,26.00
2023-03-07T16:09:57.343Z,27.75
2023-03-07T16:12:25.881Z,17.75
2023-03-07T16:14:56.895Z,20.50
2023-03-07T16:17:33.944Z,19.75
2023-03-07T16:20:01.765Z,23.00
2023-03-07T16:22:30.932Z,33.00
2023-03-07T16:24:58.853Z,28.75
2023-03-07T16:27:28.491Z,22.25
2023-03-07T16:29:58.719Z,29.50
2023-03-07T16:32:26.753Z,32.50
2023-03-07T16:34:59.144Z,23.50
2023-03-07T16:37:28.785Z,28.00
2023-03-07T16:39:56.180Z,31.50
2023-03-07T16:42:23.710Z,25.25
2023-03-07T16:44:55.799Z,33.00
2023-03-07T16:47:23.247Z,33.50
2023-03-07T16:49:51.108Z,29.75
2023-03-07T16:52:18.579Z,34.00
2023-03-07T16:54:46.294Z,23.50
2023-03-07T16:57:16.068Z,33.50
2023-03-07T16:59:47.173Z,24.00
2023-03-07T17:02:21.173Z,26.00
2023-03-07T17:04:50.528Z,26.50
2023-03-07T17:07:22.123Z,22.00
2023-03-07T17:09:50.633Z,32.75
2023-03-07T17:12:23.722Z,31.25
2023-03-07T17:14:51.954Z,24.50
2023-03-07T17:17:30.593Z,18.50
2023-03-07T17:20:06.242Z,24.25
2023-03-07T17:22:34.494Z,25.25
2023-03-07T17:25:04.985Z,26.00
2023-03-07T17:27:35.432Z,30.75
2023-03-07T17:30:04.849Z,29.75
2023-03-07T17:32:32.697Z,23.25
2023-03-07T17:35:00.152Z,29.00
2023-03-07T17:37:28.602Z,29.00
2023-03-07T17:39:58.280Z,31.25
2023-03-07T17:42:26.806Z,32.00
2023-03-07T17:44:55.226Z,26.50
2023-03-07T17:47:22.844Z,29.00
2023-03-07T17:49:50.472Z,26.00
2023-03-07T17:52:17.875Z,33.00
2023-03-07T17:54:46.065Z,29.50
2023-03-07T17:57:13.548Z,35.25
2023-03-07T17:59:41.276Z,34.50
2023-03-07T18:02:13.677Z,33.00
2023-03-07T18:04:41.609Z,36.25
2023-03-07T18:07:09.127Z,34.25
2023-03-07T18:09:41.179Z,35.75
2023-03-07T18:12:09.259Z,40.25
2023-03-07T18:14:37.138Z,28.50
2023-03-07T18:17:04.646Z,42.75
2023-03-07T18:19:34.368Z,41.75
2023-03-07T18:22:02.196Z,37.50
2023-03-07T18:24:32.801Z,43.25
2023-03-07T18:27:03.462Z,41.00
2023-03-07T18:29:32.336Z,41.75
2023-03-07T18:32:00.419Z,43.00
2023-03-07T18:34:28.468Z,39.00
2023-03-07T18:36:56.234Z,39.00
2023-03-07T18:39:27.433Z,41.00
2023-03-07T18:41:54.794Z,43.00
2023-03-07T18:44:22.262Z,39.00
2023-03-07T18:46:51.361Z,46.25
2023-03-07T18:49:18.898Z,33.25
2023-03-07T18:51:48.401Z,38.25
2023-03-07T18:54:16.742Z,41.00
2023-03-07T18:56:47.465Z,40.00
2023-03-07T18:59:17.432Z,41.00
2023-03-07T19:01:46.227Z,40.50
2023-03-07T19:04:17.435Z,40.00
2023-03-07T19:06:47.581Z,38.50
2023-03-07T19:09:18.512Z,35.50
2023-03-07T19:11:47.668Z,19.75
2023-03-07T19:14:15.231Z,43.75
2023-03-07T19:16:42.818Z,45.50
2023-03-07T19:19:13.330Z,41.50
2023-03-07T19:21:41.517Z,44.50
2023-03-07T19:24:11.442Z,42.50
2023-03-07T19:26:40.241Z,46.00
2023-03-07T19:29:09.847Z,46.50
2023-03-07T19:31:37.387Z,43.00
2023-03-07T19:34:06.495Z,43.00
2023-03-07T19:36:37.552Z,49.50
2023-03-07T19:39:05.958Z,48.75
2023-03-07T19:41:33.512Z,42.75
2023-03-07T19:44:01.534Z,45.00
2023-03-07T19:46:29.911Z,49.00
2023-03-07T19:48:59.197Z,51.50
2023-03-07T19:51:27.205Z,48.00
2023-03-07T19:53:57.476Z,45.00
2023-03-07T19:56:30.368Z,42.75
2023-03-07T19:59:00.361Z,44.75
2023-03-07T20:01:31.277Z,47.00
2023-03-07T20:03:58.874Z,38.50
2023-03-07T20:06:32.242Z,48.00
2023-03-07T20:09:00.677Z,45.25
2023-03-07T20:11:30.789Z,47.75
2023-03-07T20:14:04.809Z,40.25
2023-03-07T20:16:37.593Z,43.00
2023-03-07T20:19:09.753Z,44.50
2023-03-07T20:21:49.903Z,48.25
2023-03-07T20:24:18.797Z,44.25
2023-03-07T20:26:48.048Z,47.25
2023-03-07T20:29:16.386Z,47.00
2023-03-07T20:31:44.000Z,49.00
2023-03-07T20:34:12.245Z,46.50
2023-03-07T20:36:39.846Z,47.50
2023-03-07T20:39:14.423Z,47.00
2023-03-07T20:41:43.576Z,47.50
2023-03-07T20:44:13.658Z,49.00
2023-03-07T20:46:41.757Z,50.00
2023-03-07T20:49:13.320Z,46.50
2023-03-07T20:51:41.909Z,46.75
2023-03-07T20:54:15.385Z,45.75
2023-03-07T20:56:44.633Z,47.00
2023-03-07T20:59:19.257Z,50.00
2023-03-07T21:01:47.562Z,47.25
2023-03-07T21:04:18.513Z,46.25
2023-03-07T21:06:48.539Z,41.00
2023-03-07T21:09:17.703Z,48.00
2023-03-07T21:11:49.331Z,47.00
2023-03-07T21:14:19.387Z,48.00
2023-03-07T21:16:52.331Z,33.75
2023-03-07T21:19:22.487Z,46.00
2023-03-07T21:21:49.870Z,44.25
2023-03-07T21:24:17.276Z,45.50
2023-03-07T21:26:47.280Z,47.00
2023-03-07T21:29:15.011Z,44.50
2023-03-07T21:31:42.498Z,42.75
2023-03-07T21:34:14.185Z,42.75
2023-03-07T21:36:42.126Z,45.00
2023-03-07T21:39:11.878Z,42.50
2023-03-07T21:41:39.410Z,43.50
2023-03-07T21:44:07.425Z,45.75
2023-03-07T21:46:36.562Z,48.25
2023-03-07T21:49:04.092Z,46.00
2023-03-07T21:51:31.468Z,51.75
2023-03-07T21:53:58.947Z,51.25
2023-03-07T21:56:26.514Z,51.00
2023-03-07T21:58:54.314Z,45.50
2023-03-07T22:01:28.373Z,51.75
2023-03-07T22:03:57.924Z,48.25
2023-03-07T22:06:26.351Z,51.00
2023-03-07T22:08:58.942Z,54.75
2023-03-07T22:11:29.633Z,46.75
2023-03-07T22:13:58.168Z,50.25
2023-03-07T22:16:29.663Z,40.50
2023-03-07T22:18:57.847Z,46.00
2023-03-07T22:21:26.719Z,48.50
2023-03-07T22:24:00.512Z,47.50
2023-03-07T22:26:30.419Z,47.75
2023-03-07T22:28:58.837Z,48.75
2023-03-07T22:31:26.755Z,46.00
2023-03-07T22:33:54.900Z,41.75
2023-03-07T22:36:22.425Z,41.75
2023-03-07T22:38:56.840Z,45.00
2023-03-07T22:41:25.156Z,44.75
2023-03-07T22:43:52.865Z,41.00
2023-03-07T22:46:21.041Z,41.00
2023-03-07T22:48:52.343Z,38.25
2023-03-07T22:51:20.078Z,35.50
2023-03-07T22:53:48.529Z,45.25
2023-03-07T22:56:15.820Z,49.00
2023-03-07T22:58:44.494Z,39.50
2023-03-07T23:01:20.405Z,41.75
2023-03-07T23:03:49.420Z,44.75
2023-03-07T23:06:18.562Z,50.75
2023-03-07T23:08:52.343Z,47.75
2023-03-07T23:11:22.108Z,51.00
2023-03-07T23:13:49.900Z,46.75
2023-03-07T23:16:20.581Z,47.00
2023-03-07T23:18:51.709Z,45.00
2023-03-07T23:21:21.848Z,51.75
2023-03-07T23:23:52.205Z,50.75
2023-03-07T23:26:30.899Z,47.50
2023-03-07T23:28:59.034Z,48.75
2023-03-07T23:31:36.659Z,48.00
2023-03-07T23:34:19.683Z,48.50
2023-03-07T23:36:50.018Z,52.00
2023-03-07T23:39:17.671Z,49.00
2023-03-07T23:41:45.123Z,49.50
2023-03-07T23:44:13.070Z,49.50
2023-03-07T23:46:40.735Z,46.00
2023-03-07T23:49:10.504Z,49.75
2023-03-07T23:51:38.629Z,56.00
2023-03-07T23:54:09.293Z,54.00
2023-03-07T23:56:37.975Z,53.50
2023-03-07T23:59:05.453Z,44.50
